createdAt,value
2022-08-09T00:00:23.337Z,102560.63
2022-08-09T00:02:51.954Z,102550.34
2022-08-09T00:06:18.272Z,102546.50
2022-08-09T00:08:11.315Z,102557.38
2022-08-09T00:10:40.666Z,102555.84
2022-08-09T00:13:17.263Z,102552.69
2022-08-09T00:15:57.711Z,102561.09
2022-08-09T00:18:34.691Z,102559.31
2022-08-09T00:21:07.983Z,102559.16
2022-08-09T00:23:54.643Z,102556.69
2022-08-09T00:26:30.148Z,102554.47
2022-08-09T00:29:02.038Z,102550.66
2022-08-09T00:31:57.155Z,102558.88
2022-08-09T00:34:19.180Z,102556.75
2022-08-09T00:36:51.934Z,102563.34
2022-08-09T00:40:13.364Z,102559.13
2022-08-09T00:44:09.818Z,102562.84
2022-08-09T00:44:55.467Z,102555.78
2022-08-09T00:47:25.008Z,102563.03
2022-08-09T00:49:56.406Z,102557.84
2022-08-09T00:52:30.034Z,102556.28
2022-08-09T00:55:00.370Z,102551.41
2022-08-09T00:57:34.974Z,102558.13
2022-08-09T01:00:21.725Z,102562.03
2022-08-09T01:02:58.000Z,102570.13
2022-08-09T01:05:53.513Z,102561.50
2022-08-09T01:08:49.473Z,102563.16
2022-08-09T01:11:21.726Z,102560.44
2022-08-09T01:14:00.023Z,102569.47
2022-08-09T01:16:35.831Z,102571.78
2022-08-09T01:19:16.664Z,102574.47
2022-08-09T01:21:51.215Z,102566.81
2022-08-09T01:24:33.135Z,102569.22
2022-08-09T01:27:08.787Z,102564.63
2022-08-09T01:30:28.617Z,102569.88
2022-08-09T01:32:59.120Z,102573.63
2022-08-09T01:35:45.199Z,102569.81
2022-08-09T01:38:15.684Z,102572.03
2022-08-09T01:41:05.229Z,102566.78
2022-08-09T01:43:51.330Z,102575.09
2022-08-09T01:46:25.163Z,102573.69
2022-08-09T01:49:09.974Z,102575.91
2022-08-09T01:51:42.845Z,102580.59
2022-08-09T01:54:13.035Z,102571.50
2022-08-09T01:56:42.159Z,102569.34
2022-08-09T01:59:18.057Z,102573.63
2022-08-09T02:01:59.382Z,102574.50
2022-08-09T02:04:29.779Z,102564.31
2022-08-09T02:07:18.346Z,102566.16
2022-08-09T02:10:10.372Z,102568.19
2022-08-09T02:12:39.326Z,102567.84
2022-08-09T02:15:08.123Z,102567.44
2022-08-09T02:18:09.628Z,102566.81
2022-08-09T02:20:32.889Z,102565.47
2022-08-09T02:23:11.088Z,102562.09
2022-08-09T02:25:42.034Z,102568.94
2022-08-09T02:28:13.243Z,102570.28
2022-08-09T02:30:48.664Z,102563.81
2022-08-09T02:33:58.192Z,102570.41
2022-08-09T02:36:16.044Z,102572.81
2022-08-09T02:38:48.819Z,102578.44
2022-08-09T02:41:28.437Z,102581.19
2022-08-09T02:44:00.913Z,102579.22
2022-08-09T02:46:39.256Z,102577.91
2022-08-09T02:49:10.038Z,102577.66
2022-08-09T02:51:40.741Z,102580.19
2022-08-09T02:54:10.784Z,102583.69
2022-08-09T02:56:48.621Z,102583.31
2022-08-09T02:59:26.626Z,102576.31
2022-08-09T03:02:07.083Z,102581.38
2022-08-09T03:04:40.886Z,102583.50
2022-08-09T03:07:14.380Z,102589.13
2022-08-09T03:09:54.410Z,102594.75
2022-08-09T03:12:25.332Z,102588.09
2022-08-09T03:14:52.915Z,102585.63
2022-08-09T03:17:27.185Z,102590.97
2022-08-09T03:20:05.035Z,102584.22
2022-08-09T03:22:41.393Z,102588.84
2022-08-09T03:25:26.798Z,102595.25
2022-08-09T03:27:59.318Z,102598.59
2022-08-09T03:30:34.116Z,102605.31
2022-08-09T03:33:17.796Z,102602.13
2022-08-09T03:36:12.975Z,102612.44
2022-08-09T03:38:41.839Z,102617.88
2022-08-09T03:41:15.014Z,102618.84
2022-08-09T03:44:02.837Z,102611.66
2022-08-09T03:46:31.587Z,102626.41
2022-08-09T03:49:03.885Z,102617.94
2022-08-09T03:51:55.296Z,102617.31
2022-08-09T03:54:29.330Z,102623.69
2022-08-09T03:56:59.378Z,102617.88
2022-08-09T03:59:33.013Z,102623.09
2022-08-09T04:02:11.348Z,102631.53
2022-08-09T04:04:46.236Z,102622.91
2022-08-09T04:07:16.009Z,102621.16
2022-08-09T04:09:50.303Z,102626.59
2022-08-09T04:12:29.921Z,102618.06
2022-08-09T04:15:02.029Z,102619.59
2022-08-09T04:17:39.561Z,102625.47
2022-08-09T04:20:11.382Z,102623.84
2022-08-09T04:22:44.290Z,102616.91
2022-08-09T04:25:12.999Z,102630.88
2022-08-09T04:27:46.650Z,102630.47
2022-08-09T04:30:20.813Z,102627.00
2022-08-09T04:32:51.157Z,102632.81
2022-08-09T04:35:21.570Z,102626.03
2022-08-09T04:37:50.039Z,102635.16
2022-08-09T04:40:18.988Z,102635.13
2022-08-09T04:42:48.445Z,102640.94
2022-08-09T04:45:20.528Z,102643.06
2022-08-09T04:47:59.127Z,102642.88
2022-08-09T04:50:33.588Z,102644.63
2022-08-09T04:53:02.713Z,102644.81
2022-08-09T04:55:35.410Z,102642.03
2022-08-09T04:58:09.933Z,102648.66
2022-08-09T05:00:37.450Z,102646.34
2022-08-09T05:03:12.799Z,102655.56
2022-08-09T05:06:06.730Z,102652.41
2022-08-09T05:08:35.179Z,102649.88
2022-08-09T05:11:03.108Z,102656.47
2022-08-09T05:13:33.189Z,102653.16
2022-08-09T05:16:01.304Z,102658.91
2022-08-09T05:18:50.872Z,102657.00
2022-08-09T05:21:23.250Z,102664.56
2022-08-09T05:23:58.431Z,102655.63
2022-08-09T05:26:36.913Z,102653.53
2022-08-09T05:29:17.802Z,102661.38
2022-08-09T05:31:56.347Z,102653.88
2022-08-09T05:34:31.043Z,102662.22
2022-08-09T05:37:05.240Z,102653.69
2022-08-09T05:39:42.940Z,102660.97
2022-08-09T05:42:20.786Z,102669.75
2022-08-09T05:44:51.511Z,102661.06
2022-08-09T05:47:23.150Z,102658.97
2022-08-09T05:50:25.156Z,102654.06
2022-08-09T05:52:40.036Z,102660.91
2022-08-09T05:55:18.143Z,102660.09
2022-08-09T05:57:55.828Z,102658.28
2022-08-09T06:00:25.742Z,102664.16
2022-08-09T06:02:54.071Z,102656.91
2022-08-09T06:05:49.790Z,102654.97
2022-08-09T06:08:10.831Z,102662.44
2022-08-09T06:10:38.793Z,102658.34
2022-08-09T06:13:12.431Z,102666.69
2022-08-09T06:15:51.803Z,102664.41
2022-08-09T06:18:25.018Z,102668.50
2022-08-09T06:20:58.308Z,102664.75
2022-08-09T06:23:57.963Z,102669.03
2022-08-09T06:26:21.349Z,102666.88
2022-08-09T06:28:59.579Z,102667.47
2022-08-09T06:31:31.184Z,102668.78
2022-08-09T06:34:06.706Z,102673.16
2022-08-09T06:36:34.852Z,102667.53
2022-08-09T06:39:02.731Z,102673.44
2022-08-09T06:42:07.940Z,102668.91
2022-08-09T06:44:26.540Z,102673.25
2022-08-09T06:46:55.351Z,102669.47
2022-08-09T06:49:44.962Z,102671.03
2022-08-09T06:52:11.930Z,102669.88
2022-08-09T06:54:41.416Z,102675.84
2022-08-09T06:57:11.186Z,102679.19
2022-08-09T07:00:51.003Z,102676.97
2022-08-09T07:02:31.107Z,102674.91
2022-08-09T07:05:00.315Z,102681.50
2022-08-09T07:07:58.864Z,102678.22
2022-08-09T07:10:29.478Z,102686.56
2022-08-09T07:12:59.995Z,102685.59
2022-08-09T07:16:36.227Z,102681.72
2022-08-09T07:18:20.326Z,102674.97
2022-08-09T07:20:47.787Z,102675.44
2022-08-09T07:23:18.279Z,102684.03
2022-08-09T07:25:47.925Z,102682.50
2022-08-09T07:28:26.404Z,102684.44
2022-08-09T07:30:55.942Z,102686.97
2022-08-09T07:33:23.391Z,102678.53
2022-08-09T07:35:53.286Z,102688.22
2022-08-09T07:38:23.424Z,102690.69
2022-08-09T07:41:12.117Z,102689.47
2022-08-09T07:43:49.945Z,102688.66
2022-08-09T07:46:24.315Z,102687.00
2022-08-09T07:48:59.445Z,102683.81
2022-08-09T07:52:03.135Z,102685.81
2022-08-09T07:54:27.670Z,102686.00
2022-08-09T07:56:55.645Z,102679.06
2022-08-09T07:59:25.137Z,102682.50
2022-08-09T08:01:55.823Z,102686.56
2022-08-09T08:04:25.499Z,102681.19
2022-08-09T08:07:00.097Z,102678.56
2022-08-09T08:09:41.207Z,102682.75
2022-08-09T08:12:27.705Z,102687.84
2022-08-09T08:14:55.519Z,102691.03
2022-08-09T08:17:35.344Z,102691.44
2022-08-09T08:20:13.150Z,102693.28
2022-08-09T08:22:40.975Z,102701.28
2022-08-09T08:25:13.421Z,102700.81
2022-08-09T08:27:43.017Z,102699.16
2022-08-09T08:30:11.661Z,102703.06
2022-08-09T08:32:52.581Z,102699.91
2022-08-09T08:35:22.498Z,102702.91
2022-08-09T08:38:01.983Z,102702.22
2022-08-09T08:40:32.955Z,102705.63
2022-08-09T08:43:03.201Z,102708.88
2022-08-09T08:45:51.407Z,102714.31
2022-08-09T08:48:22.076Z,102707.72
2022-08-09T08:50:52.013Z,102695.22
2022-08-09T08:53:21.874Z,102708.75
2022-08-09T08:55:52.604Z,102709.13
2022-08-09T08:58:23.944Z,102708.00
2022-08-09T09:00:57.110Z,102715.59
2022-08-09T09:03:33.191Z,102717.38
2022-08-09T09:06:09.604Z,102715.63
2022-08-09T09:08:40.865Z,102712.53
2022-08-09T09:11:13.574Z,102720.66
2022-08-09T09:13:56.370Z,102713.59
2022-08-09T09:16:29.693Z,102722.88
2022-08-09T09:19:36.962Z,102722.72
2022-08-09T09:22:12.563Z,102716.00
2022-08-09T09:24:40.513Z,102719.03
2022-08-09T09:28:04.055Z,102717.47
2022-08-09T09:30:26.159Z,102717.06
2022-08-09T09:33:15.957Z,102715.53
2022-08-09T09:35:53.182Z,102713.69
2022-08-09T09:38:59.734Z,102717.00
2022-08-09T09:41:33.349Z,102716.34
2022-08-09T09:44:25.689Z,102717.03
2022-08-09T09:47:04.209Z,102712.34
2022-08-09T09:50:13.864Z,102715.13
2022-08-09T09:52:36.224Z,102718.44
2022-08-09T09:55:16.448Z,102721.75
2022-08-09T09:58:00.951Z,102720.03
2022-08-09T10:00:33.788Z,102712.50
2022-08-09T10:03:11.889Z,102708.44
2022-08-09T10:06:03.248Z,102710.91
2022-08-09T10:08:32.065Z,102712.13
2022-08-09T10:10:59.476Z,102712.75
2022-08-09T10:13:43.192Z,102712.38
2022-08-09T10:16:57.029Z,102712.91
2022-08-09T10:19:04.272Z,102716.53
2022-08-09T10:21:32.098Z,102711.53
2022-08-09T10:24:04.010Z,102707.56
2022-08-09T10:26:31.632Z,102707.72
2022-08-09T10:29:13.725Z,102708.44
2022-08-09T10:34:36.014Z,102711.66
2022-08-09T10:37:03.690Z,102708.16
2022-08-09T10:39:40.297Z,102711.09
2022-08-09T10:42:08.605Z,102707.31
2022-08-09T10:44:39.787Z,102704.84
2022-08-09T10:48:18.029Z,102703.19
2022-08-09T10:50:30.766Z,102702.13
2022-08-09T10:53:10.682Z,102702.19
2022-08-09T10:55:55.362Z,102714.22
2022-08-09T10:58:29.377Z,102704.28
2022-08-09T11:01:20.057Z,102701.88
2022-08-09T11:04:06.413Z,102708.53
2022-08-09T11:06:48.866Z,102703.53
2022-08-09T11:09:17.644Z,102701.78
2022-08-09T11:12:05.197Z,102701.78
2022-08-09T11:14:38.314Z,102709.69
2022-08-09T11:17:14.738Z,102696.94
2022-08-09T11:20:19.774Z,102704.75
2022-08-09T11:22:56.932Z,102703.63
2022-08-09T11:25:44.759Z,102703.72
2022-08-09T11:28:30.808Z,102696.25
2022-08-09T11:31:03.354Z,102699.69
2022-08-09T11:33:47.277Z,102694.50
2022-08-09T11:36:30.532Z,102700.03
2022-08-09T11:39:04.276Z,102702.28
2022-08-09T11:41:38.586Z,102702.63
2022-08-09T11:44:08.792Z,102696.00
2022-08-09T11:46:52.996Z,102690.88
2022-08-09T11:49:42.926Z,102701.97
2022-08-09T11:53:03.949Z,102694.97
2022-08-09T11:55:34.898Z,102693.50
2022-08-09T11:58:20.163Z,102702.13
2022-08-09T12:01:01.713Z,102689.91
2022-08-09T12:03:54.877Z,102691.75
2022-08-09T12:06:26.859Z,102693.75
2022-08-09T12:09:01.236Z,102687.63
2022-08-09T12:11:29.228Z,102694.22
2022-08-09T12:14:09.479Z,102696.94
2022-08-09T12:16:41.758Z,102688.94
2022-08-09T12:19:13.145Z,102687.97
2022-08-09T12:21:48.379Z,102683.91
2022-08-09T12:24:23.978Z,102694.16
2022-08-09T12:28:58.633Z,102690.22
2022-08-09T12:29:44.546Z,102694.84
2022-08-09T12:32:25.632Z,102695.97
2022-08-09T12:34:59.498Z,102690.00
2022-08-09T12:37:31.620Z,102686.25
2022-08-09T12:40:01.326Z,102676.72
2022-08-09T12:42:30.159Z,102677.25
2022-08-09T12:44:59.508Z,102684.47
2022-08-09T12:47:28.243Z,102686.25
2022-08-09T12:50:25.050Z,102695.88
2022-08-09T12:53:09.309Z,102679.81
2022-08-09T12:56:14.539Z,102676.31
2022-08-09T12:58:28.832Z,102684.41
2022-08-09T13:00:56.531Z,102685.47
2022-08-09T13:03:53.593Z,102680.44
2022-08-09T13:06:34.870Z,102683.44
2022-08-09T13:09:06.303Z,102669.56
2022-08-09T13:11:39.615Z,102672.50
2022-08-09T13:14:43.945Z,102670.09
2022-08-09T13:17:01.148Z,102675.28
2022-08-09T13:20:08.644Z,102663.16
2022-08-09T13:22:35.319Z,102673.41
2022-08-09T13:25:07.484Z,102669.50
2022-08-09T13:27:39.530Z,102664.50
2022-08-09T13:30:50.438Z,102663.66
2022-08-09T13:32:55.793Z,102668.13
2022-08-09T13:35:24.361Z,102669.41
2022-08-09T13:38:02.590Z,102668.34
2022-08-09T13:41:46.519Z,102679.84
2022-08-09T13:43:19.200Z,102676.34
2022-08-09T13:46:42.349Z,102679.03
2022-08-09T13:48:35.480Z,102673.13
2022-08-09T13:51:03.275Z,102674.16
2022-08-09T13:53:41.142Z,102674.59
2022-08-09T13:56:12.090Z,102672.91
2022-08-09T13:58:39.607Z,102677.19
2022-08-09T14:01:06.867Z,102673.63
2022-08-09T14:04:02.496Z,102677.19
2022-08-09T14:06:29.455Z,102667.13
2022-08-09T14:08:59.189Z,102662.94
2022-08-09T14:11:26.614Z,102658.19
2022-08-09T14:14:24.209Z,102656.03
2022-08-09T14:16:41.925Z,102663.88
2022-08-09T14:19:09.703Z,102664.78
2022-08-09T14:21:37.346Z,102662.22
2022-08-09T14:24:18.294Z,102667.53
2022-08-09T14:26:51.959Z,102670.81
2022-08-09T14:30:18.429Z,102669.06
2022-08-09T14:32:13.184Z,102663.25
2022-08-09T14:34:43.681Z,102665.13
2022-08-09T14:37:12.098Z,102665.06
2022-08-09T14:39:46.500Z,102660.66
2022-08-09T14:42:32.065Z,102660.91
2022-08-09T14:45:01.709Z,102661.69
2022-08-09T14:47:57.211Z,102665.47
2022-08-09T14:50:28.024Z,102666.31
2022-08-09T14:52:55.466Z,102665.91
2022-08-09T14:55:22.788Z,102666.25
2022-08-09T14:57:50.173Z,102666.19
2022-08-09T15:00:18.363Z,102667.66
2022-08-09T15:02:47.419Z,102661.94
2022-08-09T15:05:19.167Z,102656.88
2022-08-09T15:07:54.774Z,102663.81
2022-08-09T15:10:27.901Z,102669.16
2022-08-09T15:12:55.844Z,102667.44
2022-08-09T15:15:23.621Z,102654.94
2022-08-09T15:17:52.783Z,102656.31
2022-08-09T15:21:54.920Z,102655.72
2022-08-09T15:24:02.107Z,102659.19
2022-08-09T15:25:58.498Z,102650.88
2022-08-09T15:28:28.395Z,102648.34
2022-08-09T15:31:09.864Z,102649.41
2022-08-09T15:34:17.349Z,102659.22
2022-08-09T15:36:30.349Z,102650.72
2022-08-09T15:38:58.785Z,102656.25
2022-08-09T15:41:32.134Z,102642.97
2022-08-09T15:44:03.620Z,102647.97
2022-08-09T15:46:33.295Z,102647.31
2022-08-09T15:49:20.913Z,102641.00
2022-08-09T15:52:02.943Z,102650.19
2022-08-09T15:54:44.313Z,102648.91
2022-08-09T15:57:14.395Z,102645.50
2022-08-09T15:59:51.742Z,102644.44
2022-08-09T16:02:19.610Z,102641.25
2022-08-09T16:04:54.516Z,102635.53
2022-08-09T16:07:21.813Z,102637.72
2022-08-09T16:10:02.135Z,102640.47
2022-08-09T16:12:32.976Z,102646.59
2022-08-09T16:15:01.001Z,102644.03
2022-08-09T16:17:28.589Z,102637.34
2022-08-09T16:20:03.790Z,102641.91
2022-08-09T16:22:33.944Z,102650.50
2022-08-09T16:25:03.577Z,102641.06
2022-08-09T16:27:33.215Z,102638.56
2022-08-09T16:30:08.590Z,102636.13
2022-08-09T16:33:01.469Z,102641.06
2022-08-09T16:35:56.568Z,102642.06
2022-08-09T16:38:18.036Z,102641.06
2022-08-09T16:40:48.024Z,102644.03
2022-08-09T16:43:15.405Z,102642.06
2022-08-09T16:45:45.520Z,102633.00
2022-08-09T16:48:42.197Z,102633.88
2022-08-09T16:51:07.912Z,102634.13
2022-08-09T16:53:36.517Z,102634.16
2022-08-09T16:56:10.117Z,102626.41
2022-08-09T16:58:39.841Z,102632.63
2022-08-09T17:01:09.966Z,102628.16
2022-08-09T17:03:38.290Z,102632.16
2022-08-09T17:06:31.539Z,102631.63
2022-08-09T17:09:02.795Z,102629.78
2022-08-09T17:11:40.512Z,102629.38
2022-08-09T17:14:26.376Z,102626.66
2022-08-09T17:17:01.092Z,102628.34
2022-08-09T17:19:46.886Z,102623.72
2022-08-09T17:22:24.977Z,102631.84
2022-08-09T17:25:03.112Z,102633.84
2022-08-09T17:27:38.238Z,102630.03
2022-08-09T17:30:07.213Z,102627.16
2022-08-09T17:32:44.317Z,102632.00
2022-08-09T17:35:14.261Z,102630.91
2022-08-09T17:38:11.634Z,102632.84
2022-08-09T17:40:30.442Z,102629.13
2022-08-09T17:43:11.157Z,102631.88
2022-08-09T17:46:03.230Z,102630.13
2022-08-09T17:48:39.565Z,102624.56
2022-08-09T17:51:17.211Z,102625.03
2022-08-09T17:53:52.376Z,102625.03
2022-08-09T17:56:22.006Z,102632.97
2022-08-09T17:58:59.477Z,102632.13
2022-08-09T18:01:57.951Z,102637.41
2022-08-09T18:04:15.255Z,102638.53
2022-08-09T18:06:55.316Z,102639.28
2022-08-09T18:09:23.659Z,102649.94
2022-08-09T18:12:15.317Z,102641.41
2022-08-09T18:14:50.117Z,102645.69
2022-08-09T18:17:27.491Z,102641.41
2022-08-09T18:21:00.194Z,102642.94
2022-08-09T18:22:59.863Z,102636.19
2022-08-09T18:25:53.100Z,102643.16
2022-08-09T18:30:35.403Z,102651.41
2022-08-09T18:31:08.267Z,102647.38
2022-08-09T18:33:36.238Z,102653.53
2022-08-09T18:36:03.710Z,102655.03
2022-08-09T18:38:31.410Z,102654.78
2022-08-09T18:40:59.019Z,102648.34
2022-08-09T18:43:26.314Z,102651.06
2022-08-09T18:46:49.262Z,102647.03
2022-08-09T18:48:42.244Z,102644.09
2022-08-09T18:51:09.989Z,102641.28
2022-08-09T18:53:59.617Z,102646.66
2022-08-09T18:56:27.950Z,102649.53
2022-08-09T18:58:56.497Z,102651.88
2022-08-09T19:01:24.754Z,102649.03
2022-08-09T19:04:01.327Z,102647.31
2022-08-09T19:06:38.925Z,102645.28
2022-08-09T19:09:13.458Z,102655.75
2022-08-09T19:11:41.690Z,102652.56
2022-08-09T19:14:08.975Z,102658.94
2022-08-09T19:16:37.852Z,102653.09
2022-08-09T19:19:26.147Z,102658.56
2022-08-09T19:22:05.024Z,102663.94
2022-08-09T19:25:11.898Z,102665.31
2022-08-09T19:27:22.794Z,102659.19
2022-08-09T19:30:24.573Z,102665.78
2022-08-09T19:32:37.625Z,102657.88
2022-08-09T19:35:05.496Z,102660.75
2022-08-09T19:37:54.161Z,102667.53
2022-08-09T19:40:21.615Z,102662.75
2022-08-09T19:42:49.794Z,102669.03
2022-08-09T19:45:17.827Z,102670.16
2022-08-09T19:47:46.129Z,102662.75
2022-08-09T19:50:49.550Z,102664.06
2022-08-09T19:53:04.339Z,102666.78
2022-08-09T19:55:52.808Z,102670.81
2022-08-09T19:58:29.645Z,102663.69
2022-08-09T20:00:57.859Z,102665.75
2022-08-09T20:04:17.987Z,102665.75
2022-08-09T20:06:23.490Z,102663.28
2022-08-09T20:08:52.157Z,102667.50
2022-08-09T20:11:26.085Z,102675.75
2022-08-09T20:13:54.925Z,102669.47
2022-08-09T20:16:34.501Z,102665.09
2022-08-09T20:19:46.455Z,102664.56
2022-08-09T20:21:57.220Z,102672.28
2022-08-09T20:24:32.121Z,102670.31
2022-08-09T20:27:05.621Z,102680.34
2022-08-09T20:29:38.343Z,102671.97
2022-08-09T20:32:31.395Z,102674.06
2022-08-09T20:34:54.802Z,102667.13
2022-08-09T20:37:22.853Z,102672.94
2022-08-09T20:40:17.390Z,102680.78
2022-08-09T20:42:38.210Z,102680.34
2022-08-09T20:45:59.036Z,102680.78
2022-08-09T20:47:55.389Z,102671.84
2022-08-09T20:50:47.292Z,102664.00
2022-08-09T20:53:22.736Z,102663.16
2022-08-09T20:56:02.199Z,102666.22
2022-08-09T20:58:32.622Z,102669.94
2022-08-09T21:01:32.676Z,102664.00
2022-08-09T21:05:48.575Z,102665.31
2022-08-09T21:06:37.343Z,102662.06
2022-08-09T21:09:13.857Z,102668.63
2022-08-09T21:14:30.978Z,102669.66
2022-08-09T21:16:59.349Z,102676.31
2022-08-09T21:20:17.549Z,102676.66
2022-08-09T21:22:35.701Z,102667.06
2022-08-09T21:25:20.968Z,102662.25
2022-08-09T21:27:51.692Z,102670.09
2022-08-09T21:30:22.220Z,102664.22
2022-08-09T21:32:50.975Z,102670.94
2022-08-09T21:35:18.297Z,102672.50
2022-08-09T21:37:59.470Z,102665.09
2022-08-09T21:40:30.979Z,102666.41
2022-08-09T21:43:00.229Z,102675.34
2022-08-09T21:45:28.366Z,102668.78
2022-08-09T21:47:55.819Z,102665.94
2022-08-09T21:50:33.800Z,102672.50
2022-08-09T21:53:06.809Z,102668.34
2022-08-09T21:55:47.437Z,102668.69
2022-08-09T21:58:15.567Z,102671.84
2022-08-09T22:00:42.905Z,102670.72
2022-08-09T22:03:12.603Z,102671.59
2022-08-09T22:05:51.349Z,102676.63
2022-08-09T22:08:18.856Z,102673.13
2022-08-09T22:11:01.013Z,102677.75
2022-08-09T22:13:37.538Z,102673.34
2022-08-09T22:16:07.199Z,102675.28
2022-08-09T22:18:37.070Z,102680.84
2022-08-09T22:21:09.963Z,102677.25
2022-08-09T22:23:59.366Z,102674.34
2022-08-09T22:26:35.480Z,102671.00
2022-08-09T22:29:09.751Z,102674.59
2022-08-09T22:31:53.251Z,102675.97
2022-08-09T22:34:28.098Z,102668.34
2022-08-09T22:36:57.113Z,102672.75
2022-08-09T22:39:55.780Z,102671.28
2022-08-09T22:42:20.991Z,102670.09
2022-08-09T22:45:00.075Z,102674.44
2022-08-09T22:48:10.862Z,102674.56
2022-08-09T22:50:29.722Z,102678.50
2022-08-09T22:52:58.158Z,102675.22
2022-08-09T22:55:39.489Z,102673.84
2022-08-09T22:58:20.217Z,102677.31
2022-08-09T23:00:58.742Z,102672.09
2022-08-09T23:04:02.616Z,102676.72
2022-08-09T23:06:14.159Z,102668.91
2022-08-09T23:08:44.857Z,102671.34
2022-08-09T23:11:15.814Z,102670.72
2022-08-09T23:13:47.098Z,102672.09
2022-08-09T23:16:16.013Z,102666.66
2022-08-09T23:18:43.830Z,102675.19
2022-08-09T23:21:11.797Z,102672.97
2022-08-09T23:23:39.447Z,102674.59
2022-08-09T23:26:09.216Z,102676.63
2022-08-09T23:28:36.551Z,102676.41
2022-08-09T23:31:03.843Z,102680.09
2022-08-09T23:33:31.221Z,102667.91
2022-08-09T23:36:07.120Z,102666.16
2022-08-09T23:38:35.894Z,102672.16
2022-08-09T23:41:27.802Z,102676.81
2022-08-09T23:43:55.595Z,102673.91
2022-08-09T23:46:22.903Z,102676.41
2022-08-09T23:48:50.164Z,102677.22
2022-08-09T23:51:17.693Z,102686.50
2022-08-09T23:53:45.022Z,102676.81
2022-08-09T23:56:14.602Z,102681.56
2022-08-09T23:58:41.981Z,102691.41
